Time;durP1;ratioP1;P1;durP2;ratioP2;P2;SDS_P1;SDS_P2;PMS_P1;PMS_P2;Temp;Humidity;BMP_temperature;BMP_pressure;BME280_temperature;BME280_humidity;BME280_pressure;Samples;Min_cycle;Max_cycle;Signal;HPM_P1;HPM_P2
2023/08/08 00:00:12;;;;;;;4.03;2.00;;;14.20;99.90;;;;;;5082326;28;20277;-71
2023/08/08 00:02:39;;;;;;;3.70;2.43;;;14.20;99.90;;;;;;5075137;28;20516;-71
2023/08/08 00:05:04;;;;;;;4.70;1.80;;;14.20;99.90;;;;;;5084686;28;20170;-70
2023/08/08 00:07:30;;;;;;;3.00;2.10;;;14.10;99.90;;;;;;5073751;28;20508;-71
2023/08/08 00:09:56;;;;;;;2.20;1.87;;;14.00;99.90;;;;;;5082937;28;20803;-71
2023/08/08 00:12:22;;;;;;;2.60;2.00;;;14.00;99.90;;;;;;5088023;28;20184;-71
2023/08/08 00:14:48;;;;;;;4.70;2.07;;;14.00;99.90;;;;;;5083572;28;20509;-71
2023/08/08 00:17:14;;;;;;;4.13;1.90;;;13.90;99.90;;;;;;5084330;28;20404;-71
2023/08/08 00:19:39;;;;;;;7.87;2.20;;;13.90;99.90;;;;;;5092431;28;20220;-71
2023/08/08 00:22:05;;;;;;;3.73;1.97;;;13.90;99.90;;;;;;5091209;28;20162;-71
2023/08/08 00:24:31;;;;;;;1.57;1.40;;;13.80;99.90;;;;;;5079684;28;20179;-71
2023/08/08 00:26:56;;;;;;;3.93;2.20;;;13.80;99.90;;;;;;5079584;28;20189;-72
2023/08/08 00:29:22;;;;;;;3.97;1.40;;;13.80;99.90;;;;;;5083871;28;20208;-72
2023/08/08 00:31:48;;;;;;;7.30;2.17;;;13.80;99.90;;;;;;5092617;28;20257;-70
2023/08/08 00:34:13;;;;;;;6.87;2.03;;;13.80;99.90;;;;;;5081569;28;20678;-71
2023/08/08 00:36:39;;;;;;;2.60;1.67;;;13.70;99.90;;;;;;5082263;28;20592;-71
2023/08/08 00:39:04;;;;;;;9.40;3.17;;;13.70;99.90;;;;;;5081968;28;20195;-70
2023/08/08 00:41:30;;;;;;;2.67;1.70;;;13.70;99.90;;;;;;5081383;28;20208;-70
2023/08/08 00:43:56;;;;;;;3.90;1.90;;;13.60;99.90;;;;;;5072335;28;20202;-70
2023/08/08 00:46:24;;;;;;;4.57;2.00;;;13.60;99.90;;;;;;5070952;28;20555;-71
2023/08/08 00:48:51;;;;;;;6.43;2.77;;;13.60;99.90;;;;;;5078012;28;20198;-71
2023/08/08 00:51:17;;;;;;;3.40;2.37;;;13.50;99.90;;;;;;5078570;28;20793;-71
2023/08/08 00:53:43;;;;;;;4.33;2.00;;;13.50;99.90;;;;;;5070105;28;20953;-71
2023/08/08 00:56:10;;;;;;;6.03;2.50;;;13.50;99.90;;;;;;5070451;28;20512;-70
2023/08/08 00:58:35;;;;;;;5.50;1.77;;;13.50;99.90;;;;;;5060625;28;20444;-70
2023/08/08 01:01:01;;;;;;;3.57;2.17;;;13.50;99.90;;;;;;5076791;28;20806;-70
2023/08/08 01:03:27;;;;;;;3.80;2.40;;;13.40;99.90;;;;;;5068562;28;20204;-70
2023/08/08 01:06:19;;;;;;;3.03;2.20;;;13.40;99.90;;;;;;5086774;28;20236;-70
2023/08/08 01:08:52;;;;;;;4.80;2.17;;;13.30;99.90;;;;;;5079886;28;20677;-71
2023/08/08 01:11:18;;;;;;;6.70;2.90;;;13.30;99.90;;;;;;5076132;28;20424;-71
2023/08/08 01:13:46;;;;;;;2.47;1.77;;;13.20;99.90;;;;;;5076117;28;20447;-71
2023/08/08 01:16:13;;;;;;;3.00;1.70;;;13.20;99.90;;;;;;5060716;28;20405;-71
2023/08/08 01:18:39;;;;;;;3.30;1.97;;;13.30;99.90;;;;;;5053112;28;20563;-71
2023/08/08 01:21:06;;;;;;;2.80;1.60;;;13.30;99.90;;;;;;5071339;28;20411;-70
2023/08/08 01:24:00;;;;;;;2.30;1.70;;;13.20;99.90;;;;;;5079419;28;20427;-70
2023/08/08 01:26:27;;;;;;;2.40;1.70;;;13.40;99.90;;;;;;5051329;28;20428;-71
2023/08/08 01:28:56;;;;;;;2.30;1.87;;;13.30;99.90;;;;;;5033172;28;20437;-69
2023/08/08 01:31:22;;;;;;;8.73;1.80;;;13.20;99.90;;;;;;5060194;28;20831;-71
2023/08/08 01:33:48;;;;;;;6.00;2.13;;;13.10;99.90;;;;;;5074581;28;20461;-71
2023/08/08 01:36:22;;;;;;;3.90;2.07;;;13.20;99.90;;;;;;5082846;28;20529;-70
2023/08/08 01:38:51;;;;;;;2.27;1.70;;;13.10;99.90;;;;;;5078829;28;20186;-70
2023/08/08 01:41:18;;;;;;;2.10;1.80;;;13.10;99.90;;;;;;5080799;28;20465;-69
2023/08/08 01:43:44;;;;;;;2.50;1.60;;;13.10;99.90;;;;;;5079232;28;20518;-70
2023/08/08 01:46:10;;;;;;;2.17;1.77;;;13.00;99.90;;;;;;5064919;28;20423;-70
2023/08/08 01:48:36;;;;;;;2.17;1.87;;;13.00;99.90;;;;;;5052745;28;20460;-71
2023/08/08 01:51:02;;;;;;;3.67;1.77;;;13.10;99.90;;;;;;5077483;28;20427;-69
2023/08/08 01:53:28;;;;;;;4.00;1.80;;;13.10;99.90;;;;;;5074238;28;20190;-71
2023/08/08 01:55:54;;;;;;;5.07;1.77;;;13.20;99.90;;;;;;5089032;28;20936;-70
2023/08/08 01:58:19;;;;;;;3.50;1.77;;;13.20;99.90;;;;;;5072069;28;20578;-71
2023/08/08 02:00:46;;;;;;;2.37;1.80;;;13.20;99.90;;;;;;5069653;28;20205;-71
2023/08/08 02:03:21;;;;;;;4.37;1.50;;;13.20;99.90;;;;;;5071298;28;20201;-71
2023/08/08 02:05:47;;;;;;;4.20;1.87;;;13.20;99.90;;;;;;5070934;28;20427;-70
2023/08/08 02:08:13;;;;;;;4.07;1.90;;;13.30;99.90;;;;;;5070596;28;20408;-70
2023/08/08 02:10:39;;;;;;;3.00;1.80;;;13.30;99.90;;;;;;5071348;28;20513;-70
2023/08/08 02:13:10;;;;;;;2.13;1.43;;;13.20;99.90;;;;;;5070862;28;20323;-70
2023/08/08 02:15:37;;;;;;;5.03;2.07;;;13.20;99.90;;;;;;5054636;28;20981;-71
2023/08/08 02:18:10;;;;;;;2.13;1.57;;;13.20;99.90;;;;;;5074259;28;20456;-71
2023/08/08 02:20:39;;;;;;;3.47;2.10;;;13.20;99.90;;;;;;5072428;28;20425;-70
2023/08/08 02:23:11;;;;;;;6.13;1.67;;;13.30;99.90;;;;;;5082153;28;20771;-70
2023/08/08 02:25:39;;;;;;;2.53;1.70;;;13.30;99.90;;;;;;5081416;28;20448;-70
2023/08/08 02:28:13;;;;;;;2.57;2.17;;;13.30;99.90;;;;;;5082673;28;20810;-70
2023/08/08 02:30:38;;;;;;;9.40;2.20;;;13.30;99.90;;;;;;5094804;28;20778;-70
2023/08/08 02:33:06;;;;;;;1.70;1.60;;;13.30;99.90;;;;;;5094956;28;20432;-70
2023/08/08 02:35:44;;;;;;;3.60;1.80;;;13.30;99.90;;;;;;5095041;28;20583;-71
2023/08/08 02:38:12;;;;;;;1.90;1.47;;;13.30;99.90;;;;;;5094787;28;20407;-69
2023/08/08 02:40:40;;;;;;;3.07;1.60;;;13.30;99.90;;;;;;5075411;28;20840;-71
2023/08/08 02:43:10;;;;;;;2.30;1.70;;;13.20;99.90;;;;;;5075493;28;20404;-71
2023/08/08 02:45:39;;;;;;;3.60;2.27;;;13.10;99.90;;;;;;5064533;28;20760;-71
2023/08/08 02:48:07;;;;;;;2.40;1.67;;;13.00;99.90;;;;;;5089486;28;20410;-71
2023/08/08 02:50:33;;;;;;;3.53;1.67;;;13.00;99.90;;;;;;5086852;28;20431;-71
2023/08/08 02:52:58;;;;;;;2.23;1.70;;;13.00;99.90;;;;;;5081345;28;20491;-71
2023/08/08 02:55:24;;;;;;;5.50;1.70;;;13.00;99.90;;;;;;5074723;28;20208;-71
2023/08/08 02:57:50;;;;;;;2.60;1.97;;;12.90;99.90;;;;;;5074617;28;20185;-70
2023/08/08 03:00:15;;;;;;;3.20;2.13;;;12.90;99.90;;;;;;5074275;28;20255;-71
2023/08/08 03:02:41;;;;;;;3.57;2.33;;;12.90;99.90;;;;;;5073822;28;20206;-70
2023/08/08 03:05:07;;;;;;;16.83;2.33;;;12.90;99.90;;;;;;5073720;28;20170;-70
2023/08/08 03:07:32;;;;;;;3.53;1.80;;;12.90;99.90;;;;;;5073717;28;20170;-70
2023/08/08 03:09:58;;;;;;;5.60;2.47;;;12.90;99.90;;;;;;5073106;28;20455;-69
2023/08/08 03:12:24;;;;;;;3.00;1.90;;;12.80;99.90;;;;;;5073304;28;20583;-69
2023/08/08 03:14:49;;;;;;;1.67;1.57;;;12.70;99.90;;;;;;5073101;28;20213;-69
2023/08/08 03:17:15;;;;;;;5.67;2.03;;;12.70;99.90;;;;;;5073341;28;20625;-72
2023/08/08 03:19:40;;;;;;;2.37;1.57;;;12.80;99.90;;;;;;5073064;28;20189;-70
2023/08/08 03:22:06;;;;;;;3.10;1.83;;;12.80;99.90;;;;;;5073250;28;20163;-70
2023/08/08 03:24:31;;;;;;;3.00;2.20;;;12.70;99.90;;;;;;5073607;28;20680;-71
2023/08/08 03:26:57;;;;;;;2.70;2.20;;;12.70;99.90;;;;;;5073637;28;20198;-71
2023/08/08 03:29:23;;;;;;;2.30;1.90;;;12.70;99.90;;;;;;5073356;28;20183;-71
2023/08/08 03:31:48;;;;;;;3.17;1.90;;;12.70;99.90;;;;;;5056267;28;20553;-71
2023/08/08 03:34:14;;;;;;;3.53;1.80;;;12.80;99.90;;;;;;5073240;28;20683;-71
2023/08/08 03:36:40;;;;;;;11.20;3.23;;;12.80;99.90;;;;;;5073415;28;20245;-70
2023/08/08 03:39:08;;;;;;;4.33;2.23;;;12.80;99.90;;;;;;5072923;28;20195;-70
2023/08/08 03:41:33;;;;;;;2.40;1.90;;;12.70;99.90;;;;;;5072855;28;20890;-70
2023/08/08 03:43:59;;;;;;;3.83;1.90;;;12.70;99.90;;;;;;5069828;28;20420;-71
2023/08/08 03:46:24;;;;;;;3.03;1.90;;;12.80;99.90;;;;;;5077684;28;20640;-70
2023/08/08 03:48:50;;;;;;;4.87;2.27;;;12.70;99.90;;;;;;5072501;28;20198;-70
2023/08/08 03:51:16;;;;;;;6.50;2.37;;;12.70;99.90;;;;;;5072889;28;20166;-70
2023/08/08 03:53:41;;;;;;;5.70;2.40;;;12.80;99.90;;;;;;5072712;28;20262;-71
2023/08/08 03:56:07;;;;;;;2.13;1.77;;;12.90;99.90;;;;;;5072639;28;20159;-70
2023/08/08 03:58:33;;;;;;;4.03;2.37;;;12.90;99.90;;;;;;5072235;28;20186;-70
2023/08/08 04:00:58;;;;;;;2.63;1.90;;;12.90;99.90;;;;;;5072371;28;20170;-71
2023/08/08 04:03:24;;;;;;;3.47;2.53;;;12.90;99.90;;;;;;5072145;28;20162;-70
2023/08/08 04:05:49;;;;;;;4.30;2.23;;;13.00;99.90;;;;;;5072351;28;20174;-71
2023/08/08 04:08:16;;;;;;;3.90;2.37;;;13.10;99.90;;;;;;5072069;28;20563;-71
2023/08/08 04:10:42;;;;;;;4.20;2.50;;;13.10;99.90;;;;;;5066428;28;20179;-71
2023/08/08 04:13:08;;;;;;;6.10;2.10;;;13.10;99.90;;;;;;5052265;28;20541;-70
2023/08/08 04:15:33;;;;;;;5.37;2.70;;;13.20;99.90;;;;;;5052276;28;20429;-71
2023/08/08 04:17:59;;;;;;;2.90;2.30;;;13.20;99.90;;;;;;5052179;28;20236;-70
2023/08/08 04:20:25;;;;;;;6.60;2.63;;;13.20;99.90;;;;;;5056533;28;20182;-70
2023/08/08 04:22:50;;;;;;;6.13;2.03;;;13.20;99.90;;;;;;5072131;28;20257;-71
2023/08/08 04:25:16;;;;;;;4.40;1.97;;;13.20;99.90;;;;;;5072219;28;20159;-70
2023/08/08 04:27:42;;;;;;;3.67;2.13;;;13.20;99.90;;;;;;5072455;28;20276;-70
2023/08/08 04:30:08;;;;;;;7.37;2.27;;;13.20;99.90;;;;;;5073885;28;20281;-70
2023/08/08 04:32:33;;;;;;;2.50;2.30;;;13.20;99.90;;;;;;5088346;28;20174;-71
2023/08/08 04:34:59;;;;;;;2.40;2.13;;;13.30;99.90;;;;;;5084185;28;20746;-71
2023/08/08 04:37:25;;;;;;;5.17;2.10;;;13.30;99.90;;;;;;5071364;28;20170;-71
2023/08/08 04:39:50;;;;;;;4.50;2.57;;;13.40;99.90;;;;;;5071455;28;20201;-71
2023/08/08 04:42:16;;;;;;;4.50;2.30;;;13.40;99.90;;;;;;5050833;28;20212;-70
2023/08/08 04:44:41;;;;;;;3.97;2.60;;;13.40;99.90;;;;;;5085752;28;20535;-70
2023/08/08 04:47:07;;;;;;;3.90;1.87;;;13.40;99.90;;;;;;5064489;28;20171;-70
2023/08/08 04:49:33;;;;;;;3.07;2.07;;;13.60;99.90;;;;;;5051677;28;20265;-70
2023/08/08 04:51:58;;;;;;;1.87;1.77;;;13.70;99.90;;;;;;5051888;28;20217;-71
2023/08/08 04:54:24;;;;;;;5.93;2.47;;;13.70;99.90;;;;;;5052501;28;20562;-71
2023/08/08 04:56:49;;;;;;;3.00;1.80;;;13.70;99.90;;;;;;5071618;28;20170;-71
2023/08/08 04:59:15;;;;;;;3.23;2.47;;;13.80;99.90;;;;;;5071724;28;20222;-71
2023/08/08 05:01:41;;;;;;;4.37;1.70;;;13.90;99.90;;;;;;5071874;28;20168;-69
2023/08/08 05:04:06;;;;;;;3.73;1.83;;;14.00;99.90;;;;;;5067971;28;20186;-69
2023/08/08 05:06:32;;;;;;;3.23;1.90;;;14.10;99.90;;;;;;5051936;28;20233;-71
2023/08/08 05:08:57;;;;;;;3.93;2.10;;;14.00;99.90;;;;;;5051121;28;20281;-71
2023/08/08 05:11:23;;;;;;;2.20;2.00;;;14.00;99.90;;;;;;5071185;28;20162;-71
2023/08/08 05:13:49;;;;;;;2.57;2.10;;;14.00;99.90;;;;;;5071210;28;20233;-70
2023/08/08 05:16:15;;;;;;;1.90;1.70;;;14.10;99.90;;;;;;5053669;28;20949;-69
2023/08/08 05:18:40;;;;;;;2.37;1.50;;;14.10;99.90;;;;;;5053645;28;20273;-69
2023/08/08 05:21:06;;;;;;;3.40;1.77;;;14.20;99.90;;;;;;5071782;28;20262;-71
2023/08/08 05:23:32;;;;;;;6.50;2.40;;;14.30;99.90;;;;;;5053408;28;20253;-70
2023/08/08 05:25:58;;;;;;;2.07;1.87;;;14.50;99.90;;;;;;5071472;28;20411;-70
2023/08/08 05:28:24;;;;;;;2.80;1.70;;;14.50;99.90;;;;;;5070945;28;20520;-71
2023/08/08 05:30:49;;;;;;;2.77;2.10;;;14.60;99.90;;;;;;5071273;28;20411;-70
2023/08/08 05:33:15;;;;;;;3.00;1.97;;;14.70;99.90;;;;;;5071260;28;20214;-70
2023/08/08 05:35:40;;;;;;;2.93;1.73;;;14.90;99.90;;;;;;5071311;28;20167;-70
2023/08/08 05:38:06;;;;;;;1.97;1.40;;;15.00;99.90;;;;;;5071105;28;20241;-71
2023/08/08 05:40:36;;;;;;;4.00;2.23;;;15.20;99.90;;;;;;5071638;28;20169;-70
2023/08/08 05:43:02;;;;;;;4.50;1.60;;;15.90;99.90;;;;;;5074538;28;20421;-69
2023/08/08 05:45:27;;;;;;;3.00;1.50;;;16.50;99.90;;;;;;5084156;28;20461;-70
2023/08/08 05:47:54;;;;;;;3.60;1.30;;;16.40;99.90;;;;;;5071228;28;20405;-70
2023/08/08 05:50:20;;;;;;;2.50;1.50;;;16.50;99.90;;;;;;5074502;28;20617;-70
2023/08/08 05:52:46;;;;;;;4.60;1.60;;;16.50;99.90;;;;;;5056942;28;20409;-70
2023/08/08 05:55:11;;;;;;;3.27;2.20;;;16.40;99.90;;;;;;5074901;28;20170;-71
2023/08/08 05:57:37;;;;;;;2.43;1.53;;;16.10;99.90;;;;;;5074789;28;20195;-70
2023/08/08 06:00:05;;;;;;;3.30;1.83;;;16.20;99.90;;;;;;5074601;28;20656;-70
2023/08/08 06:02:30;;;;;;;3.20;2.53;;;15.80;99.90;;;;;;5074526;28;20485;-68
2023/08/08 06:04:56;;;;;;;3.10;2.37;;;15.60;99.90;;;;;;5074680;28;20497;-71
2023/08/08 06:07:22;;;;;;;3.37;2.30;;;15.90;99.90;;;;;;5081410;28;20188;-69
2023/08/08 06:09:47;;;;;;;6.50;2.23;;;15.90;99.90;;;;;;5092639;28;20211;-69
2023/08/08 06:12:16;;;;;;;4.80;2.20;;;16.30;99.90;;;;;;5087441;28;20213;-69
2023/08/08 06:14:44;;;;;;;4.27;2.77;;;16.40;99.90;;;;;;5057017;28;20205;-69
2023/08/08 06:17:10;;;;;;;3.87;2.03;;;16.40;99.90;;;;;;5074497;28;20475;-69
2023/08/08 06:19:35;;;;;;;2.53;2.03;;;16.70;99.90;;;;;;5074147;28;20466;-73
2023/08/08 06:22:03;;;;;;;3.00;2.33;;;16.70;99.90;;;;;;5074575;28;20178;-73
2023/08/08 06:24:28;;;;;;;3.33;2.00;;;17.00;99.90;;;;;;5074534;28;20162;-75
2023/08/08 06:26:54;;;;;;;2.20;2.00;;;17.00;99.90;;;;;;5064426;28;20420;-74
2023/08/08 06:29:20;;;;;;;2.33;1.57;;;16.80;99.90;;;;;;5061417;28;20220;-76
2023/08/08 06:31:46;;;;;;;3.07;1.90;;;16.70;99.90;;;;;;5074026;28;20181;-71
2023/08/08 06:34:11;;;;;;;4.60;1.87;;;17.00;99.90;;;;;;5043998;28;20744;-71
2023/08/08 06:36:37;;;;;;;4.03;2.20;;;17.20;99.90;;;;;;5065396;28;20560;-71
2023/08/08 06:39:03;;;;;;;2.73;1.87;;;17.00;99.90;;;;;;5087111;28;20244;-71
2023/08/08 06:41:28;;;;;;;4.70;2.27;;;17.10;99.90;;;;;;5071953;28;20466;-72
2023/08/08 06:43:54;;;;;;;4.70;2.83;;;16.60;99.90;;;;;;5053318;28;20177;-71
2023/08/08 06:46:20;;;;;;;4.97;2.60;;;16.70;99.90;;;;;;5081083;28;20225;-71
2023/08/08 06:48:46;;;;;;;3.47;1.93;;;16.70;99.90;;;;;;5060669;28;20665;-73
2023/08/08 06:51:12;;;;;;;3.43;2.10;;;16.80;99.90;;;;;;5073871;28;20528;-71
2023/08/08 06:53:38;;;;;;;6.10;2.80;;;16.30;99.90;;;;;;5083876;28;20460;-71
2023/08/08 06:56:04;;;;;;;3.13;1.80;;;16.40;99.90;;;;;;5079686;28;20229;-71
2023/08/08 06:58:30;;;;;;;5.67;2.40;;;16.10;99.90;;;;;;5079489;28;20185;-71
2023/08/08 07:00:55;;;;;;;3.17;1.87;;;16.20;99.90;;;;;;5027602;28;20177;-72
2023/08/08 07:03:21;;;;;;;1.83;1.73;;;16.70;99.90;;;;;;5086639;28;20412;-71
2023/08/08 07:05:51;;;;;;;9.50;1.77;;;17.00;99.90;;;;;;5064160;28;20181;-71
2023/08/08 07:08:17;;;;;;;2.13;1.93;;;17.20;99.90;;;;;;5068336;28;20227;-73
2023/08/08 07:10:43;;;;;;;4.90;2.03;;;17.40;99.90;;;;;;5068573;28;20433;-72
2023/08/08 07:13:09;;;;;;;4.23;2.30;;;17.10;99.90;;;;;;5076965;28;20456;-71
2023/08/08 07:15:34;;;;;;;3.20;1.97;;;17.30;99.90;;;;;;5084445;28;20223;-72
2023/08/08 07:18:00;;;;;;;1.73;1.63;;;17.90;99.90;;;;;;5060328;28;20225;-72
2023/08/08 07:20:25;;;;;;;4.20;1.70;;;17.80;99.90;;;;;;5069685;28;20200;-72
2023/08/08 07:22:51;;;;;;;2.30;1.97;;;18.00;99.90;;;;;;5070755;28;20187;-72
2023/08/08 07:25:17;;;;;;;2.50;2.03;;;17.70;99.90;;;;;;5084912;28;20216;-72
2023/08/08 07:27:42;;;;;;;2.37;2.17;;;17.80;99.90;;;;;;5067799;28;20264;-72
2023/08/08 07:30:08;;;;;;;3.53;1.97;;;17.60;99.90;;;;;;5080298;28;20223;-72
2023/08/08 07:32:34;;;;;;;2.60;1.97;;;17.50;99.90;;;;;;5073749;28;20197;-72
2023/08/08 07:35:02;;;;;;;4.17;2.10;;;17.30;99.90;;;;;;5065299;28;20452;-73
2023/08/08 07:37:28;;;;;;;4.43;2.13;;;17.30;99.90;;;;;;5081082;28;20175;-71
2023/08/08 07:39:53;;;;;;;3.60;1.90;;;17.00;99.90;;;;;;5074348;28;20462;-73
2023/08/08 07:42:19;;;;;;;3.33;2.10;;;17.00;99.90;;;;;;5051129;28;20212;-74
2023/08/08 07:44:44;;;;;;;1.77;1.67;;;17.60;99.90;;;;;;5073803;28;20228;-71
2023/08/08 07:47:10;;;;;;;2.13;1.70;;;18.30;99.90;;;;;;5076744;28;20181;-73
2023/08/08 07:49:36;;;;;;;2.03;1.33;;;18.40;99.90;;;;;;5079456;28;20201;-72
2023/08/08 07:52:02;;;;;;;4.73;1.67;;;18.50;99.90;;;;;;5073309;28;20257;-72
2023/08/08 07:54:27;;;;;;;4.73;1.50;;;18.80;99.90;;;;;;5051202;28;20719;-73
2023/08/08 07:56:53;;;;;;;2.33;1.83;;;18.50;99.90;;;;;;5068665;28;20494;-73
2023/08/08 07:59:19;;;;;;;2.77;1.70;;;18.70;99.90;;;;;;5060094;28;20245;-72
2023/08/08 08:01:44;;;;;;;2.60;1.63;;;18.10;99.90;;;;;;5065293;28;20209;-73
2023/08/08 08:04:10;;;;;;;2.33;1.80;;;18.70;99.90;;;;;;5072700;28;20224;-74
2023/08/08 08:06:36;;;;;;;3.47;1.50;;;19.00;99.90;;;;;;5067324;28;20203;-74
2023/08/08 08:09:03;;;;;;;2.30;1.47;;;19.50;99.90;;;;;;5067050;28;20262;-73
2023/08/08 08:11:29;;;;;;;2.47;1.20;;;19.70;99.90;;;;;;5059510;28;20183;-71
2023/08/08 08:13:54;;;;;;;1.70;1.50;;;20.00;99.90;;;;;;5072166;28;20455;-72
2023/08/08 08:16:20;;;;;;;6.20;1.70;;;20.10;99.90;;;;;;5076154;28;20342;-73
2023/08/08 08:18:47;;;;;;;1.60;1.33;;;19.50;99.90;;;;;;5056701;28;20200;-77
2023/08/08 08:21:14;;;;;;;2.97;1.53;;;20.20;99.90;;;;;;5058675;28;20906;-73
2023/08/08 08:23:40;;;;;;;1.73;1.63;;;20.50;99.90;;;;;;5065548;28;20431;-73
2023/08/08 08:26:05;;;;;;;4.53;1.60;;;20.90;99.90;;;;;;5073688;28;20428;-73
2023/08/08 08:28:31;;;;;;;3.90;1.50;;;19.90;99.90;;;;;;5078634;28;20679;-72
2023/08/08 08:30:57;;;;;;;4.30;2.10;;;20.10;99.90;;;;;;5075834;28;20412;-74
2023/08/08 08:33:22;;;;;;;2.07;1.87;;;19.60;99.90;;;;;;5059663;28;20194;-72
2023/08/08 08:35:48;;;;;;;2.43;1.40;;;20.10;99.90;;;;;;5053803;28;20586;-71
2023/08/08 08:38:14;;;;;;;2.63;1.23;;;20.70;99.90;;;;;;5079268;28;20170;-72
2023/08/08 08:40:41;;;;;;;1.57;1.47;;;21.00;99.90;;;;;;5069645;28;20539;-71
2023/08/08 08:43:09;;;;;;;4.43;1.90;;;21.20;99.90;;;;;;5077469;28;20172;-72
2023/08/08 08:45:39;;;;;;;3.27;1.77;;;20.80;99.90;;;;;;5045825;28;20521;-73
2023/08/08 08:48:13;;;;;;;2.07;1.60;;;20.40;99.90;;;;;;5050685;28;20443;-71
2023/08/08 08:50:39;;;;;;;1.37;1.27;;;19.90;99.90;;;;;;5078149;28;20402;-72
2023/08/08 08:53:05;;;;;;;3.23;2.10;;;19.90;99.90;;;;;;5071286;28;20888;-72
2023/08/08 08:55:31;;;;;;;2.17;1.27;;;19.90;99.90;;;;;;5068584;28;20450;-73
2023/08/08 08:57:57;;;;;;;1.83;1.73;;;20.80;99.90;;;;;;5074304;28;20185;-80
2023/08/08 09:00:24;;;;;;;3.03;1.70;;;20.70;99.90;;;;;;5082346;28;20479;-71
2023/08/08 09:02:50;;;;;;;4.10;1.47;;;20.10;99.90;;;;;;5074144;28;20189;-69
2023/08/08 09:05:21;;;;;;;5.07;1.70;;;21.40;99.90;;;;;;5076268;28;20441;-72
2023/08/08 09:07:47;;;;;;;1.97;1.70;;;21.20;99.90;;;;;;5060056;28;20174;-71
2023/08/08 09:10:15;;;;;;;2.00;1.67;;;20.60;99.90;;;;;;5065719;28;20880;-72
2023/08/08 09:12:41;;;;;;;6.40;3.70;;;21.10;99.90;;;;;;5071619;28;20177;-71
2023/08/08 09:15:07;;;;;;;5.43;1.60;;;21.60;99.90;;;;;;5070738;28;20427;-74
2023/08/08 09:17:33;;;;;;;2.60;1.80;;;20.50;99.90;;;;;;5085174;28;20639;-72
2023/08/08 09:19:59;;;;;;;1.80;1.40;;;20.90;99.90;;;;;;5058531;28;20456;-72
2023/08/08 09:22:26;;;;;;;2.13;1.40;;;20.30;99.90;;;;;;5065274;28;20188;-72
2023/08/08 09:24:52;;;;;;;1.97;1.30;;;20.50;99.90;;;;;;5073483;28;20526;-72
2023/08/08 09:27:18;;;;;;;2.03;1.43;;;21.30;99.90;;;;;;5079644;28;20426;-72
2023/08/08 09:29:44;;;;;;;5.27;2.00;;;21.70;99.90;;;;;;5075704;28;20193;-72
2023/08/08 09:32:09;;;;;;;2.20;1.40;;;20.60;99.90;;;;;;5072808;28;20179;-72
2023/08/08 09:34:35;;;;;;;3.40;1.67;;;20.50;99.90;;;;;;5063817;28;20544;-72
2023/08/08 09:37:02;;;;;;;3.47;1.60;;;20.30;99.90;;;;;;5061839;28;20180;-72
2023/08/08 09:39:28;;;;;;;2.80;1.67;;;20.10;99.90;;;;;;5083000;28;20454;-72
2023/08/08 09:41:56;;;;;;;1.83;1.60;;;20.00;99.90;;;;;;5082690;28;20419;-72
2023/08/08 09:44:27;;;;;;;2.30;1.57;;;19.70;99.90;;;;;;5073176;28;20446;-72
2023/08/08 09:46:53;;;;;;;1.80;1.60;;;20.10;99.90;;;;;;5059069;28;20779;-72
2023/08/08 09:49:20;;;;;;;1.73;1.53;;;19.60;99.90;;;;;;5082961;28;20545;-72
2023/08/08 09:51:46;;;;;;;4.17;1.60;;;20.10;99.90;;;;;;5083801;28;20253;-73
2023/08/08 09:54:12;;;;;;;4.50;1.70;;;20.30;99.90;;;;;;5059857;28;20982;-73
2023/08/08 09:56:39;;;;;;;5.50;1.60;;;20.40;99.90;;;;;;5072931;28;20427;-76
2023/08/08 09:59:06;;;;;;;4.10;1.70;;;20.10;99.90;;;;;;5077292;28;20948;-72
2023/08/08 10:01:32;;;;;;;2.60;2.40;;;19.20;99.90;;;;;;5083245;28;20425;-75
2023/08/08 10:03:59;;;;;;;3.20;2.33;;;19.50;99.90;;;;;;5073773;28;20408;-78
2023/08/08 10:06:24;;;;;;;3.50;2.00;;;19.00;99.90;;;;;;5058684;28;20415;-74
2023/08/08 10:08:50;;;;;;;14.27;7.50;;;18.50;99.90;;;;;;5074232;28;20497;-71
2023/08/08 10:11:18;;;;;;;3.77;2.20;;;17.90;99.90;;;;;;5078458;28;20223;-76
2023/08/08 10:13:49;;;;;;;5.30;4.30;;;17.30;99.90;;;;;;5055805;28;20795;-70
2023/08/08 10:16:19;;;;;;;6.60;4.70;;;17.40;99.90;;;;;;5078142;28;20435;-70
2023/08/08 10:18:46;;;;;;;3.63;2.60;;;17.80;99.90;;;;;;5086321;28;20443;-70
2023/08/08 10:21:12;;;;;;;3.10;2.30;;;18.00;99.90;;;;;;5060795;28;20431;-70
2023/08/08 10:23:39;;;;;;;4.73;2.60;;;17.90;99.90;;;;;;5077816;28;20520;-70
2023/08/08 10:26:19;;;;;;;4.87;3.60;;;17.90;99.90;;;;;;5077755;28;20948;-70
2023/08/08 10:28:57;;;;;;;3.73;2.10;;;17.80;99.90;;;;;;5076813;28;20515;-70
2023/08/08 10:31:23;;;;;;;3.63;2.30;;;17.90;99.90;;;;;;5076665;28;20416;-71
2023/08/08 10:33:49;;;;;;;4.37;2.20;;;18.00;99.90;;;;;;5075916;28;21146;-70
2023/08/08 10:36:15;;;;;;;5.77;4.80;;;18.40;99.90;;;;;;5078934;28;20667;-71
2023/08/08 10:38:52;;;;;;;3.40;2.50;;;18.60;99.90;;;;;;5080924;28;20534;-70
2023/08/08 10:41:19;;;;;;;4.40;2.00;;;18.80;99.90;;;;;;5059584;28;20406;-71
2023/08/08 10:43:50;;;;;;;10.37;6.67;;;18.80;99.90;;;;;;5072919;28;20509;-71
2023/08/08 10:46:30;;;;;;;4.97;3.77;;;19.00;99.90;;;;;;5080788;28;20404;-71
2023/08/08 10:49:01;;;;;;;2.60;2.37;;;18.90;99.90;;;;;;5080795;28;20502;-70
2023/08/08 10:51:42;;;;;;;5.63;4.10;;;18.40;99.90;;;;;;5082223;28;20411;-72
2023/08/08 10:54:16;;;;;;;2.93;1.93;;;17.90;99.90;;;;;;5082264;28;20471;-69
2023/08/08 10:56:51;;;;;;;10.03;6.30;;;17.60;99.90;;;;;;5071822;28;20441;-70
2023/08/08 10:59:21;;;;;;;3.27;1.67;;;17.60;99.90;;;;;;5066601;28;20483;-71
2023/08/08 11:01:48;;;;;;;6.90;3.43;;;17.50;99.90;;;;;;5072645;28;22640;-71
2023/08/08 11:04:16;;;;;;;5.53;4.43;;;17.90;99.90;;;;;;5087084;28;20475;-71
2023/08/08 11:06:41;;;;;;;3.00;2.07;;;18.10;99.90;;;;;;5070207;28;20441;-71
2023/08/08 11:09:08;;;;;;;25.27;18.43;;;18.20;99.90;;;;;;5083476;28;20877;-72
2023/08/08 11:11:38;;;;;;;24.77;18.37;;;18.60;99.90;;;;;;5076937;28;20463;-71
2023/08/08 11:14:19;;;;;;;36.40;28.03;;;19.20;99.90;;;;;;5066474;28;20814;-71
2023/08/08 11:16:46;;;;;;;37.47;26.23;;;19.40;99.90;;;;;;5089249;28;20921;-72
2023/08/08 11:19:12;;;;;;;14.10;8.70;;;19.50;99.90;;;;;;5073246;28;20461;-71
2023/08/08 11:21:41;;;;;;;4.47;2.20;;;19.70;99.90;;;;;;5078245;28;20497;-71
2023/08/08 11:24:08;;;;;;;9.83;8.23;;;19.80;99.90;;;;;;5087800;28;20397;-72
2023/08/08 11:26:38;;;;;;;14.20;10.33;;;20.00;99.90;;;;;;5065813;28;20419;-71
2023/08/08 11:29:08;;;;;;;3.30;2.43;;;19.80;99.90;;;;;;5056358;28;20460;-71
2023/08/08 11:31:34;;;;;;;7.30;4.77;;;19.40;99.90;;;;;;5088382;28;20529;-71
2023/08/08 11:34:00;;;;;;;3.60;2.13;;;19.00;99.90;;;;;;5074547;28;20493;-71
2023/08/08 11:36:30;;;;;;;2.27;1.53;;;19.00;99.90;;;;;;5086131;28;20488;-71
2023/08/08 11:38:57;;;;;;;5.37;4.40;;;18.60;99.90;;;;;;5076008;28;20628;-73
2023/08/08 11:41:24;;;;;;;1.80;1.43;;;18.70;99.90;;;;;;5065198;28;20491;-73
2023/08/08 11:43:51;;;;;;;1.50;1.40;;;18.50;99.90;;;;;;5072343;28;20438;-73
2023/08/08 11:46:17;;;;;;;1.60;1.50;;;18.30;99.90;;;;;;5059643;28;20822;-73
2023/08/08 11:48:45;;;;;;;1.50;1.37;;;18.40;99.90;;;;;;5063265;28;20474;-73
2023/08/08 11:51:14;;;;;;;2.40;1.57;;;18.20;99.90;;;;;;5068072;28;20461;-73
2023/08/08 11:53:50;;;;;;;1.67;1.57;;;17.90;99.90;;;;;;5060518;28;20487;-73
2023/08/08 11:56:15;;;;;;;2.20;1.40;;;17.80;99.90;;;;;;5076024;28;20421;-72
2023/08/08 11:58:41;;;;;;;1.87;1.77;;;18.00;99.90;;;;;;5083497;28;20430;-74
2023/08/08 12:01:08;;;;;;;2.17;1.50;;;18.20;99.90;;;;;;5061631;28;20476;-72
2023/08/08 12:03:38;;;;;;;1.83;1.70;;;18.60;99.90;;;;;;5078290;28;20180;-75
2023/08/08 12:06:14;;;;;;;2.13;2.03;;;18.90;99.90;;;;;;5068465;28;20527;-73
2023/08/08 12:08:44;;;;;;;2.03;1.70;;;19.00;99.90;;;;;;5075163;28;20454;-73
2023/08/08 12:11:12;;;;;;;2.13;1.93;;;18.90;99.90;;;;;;5068278;28;20913;-73
2023/08/08 12:13:40;;;;;;;3.97;1.83;;;19.20;99.90;;;;;;5052620;28;20461;-73
2023/08/08 12:16:09;;;;;;;3.60;2.50;;;19.20;99.90;;;;;;5067285;28;21005;-73
2023/08/08 12:18:39;;;;;;;4.37;3.60;;;19.50;99.90;;;;;;5072070;28;20445;-74
2023/08/08 12:21:06;;;;;;;3.37;1.60;;;19.50;99.90;;;;;;5059897;28;20439;-73
2023/08/08 12:23:33;;;;;;;2.33;2.00;;;19.60;99.90;;;;;;5075584;28;20405;-74
2023/08/08 12:25:59;;;;;;;1.93;1.70;;;19.80;99.90;;;;;;5071066;28;20443;-72
2023/08/08 12:28:25;;;;;;;1.93;1.73;;;19.90;99.90;;;;;;5077282;28;20919;-72
2023/08/08 12:30:51;;;;;;;3.20;1.97;;;20.20;99.90;;;;;;5056497;28;20422;-72
2023/08/08 12:33:16;;;;;;;3.23;1.97;;;20.30;99.90;;;;;;5061445;28;20849;-72
2023/08/08 12:35:42;;;;;;;2.17;1.97;;;20.20;99.90;;;;;;5079039;28;20627;-72
2023/08/08 12:38:08;;;;;;;2.73;2.00;;;20.40;99.90;;;;;;5070370;28;20187;-74
2023/08/08 12:40:33;;;;;;;3.57;1.77;;;19.90;99.90;;;;;;5048768;28;20785;-73
2023/08/08 12:42:59;;;;;;;6.97;2.27;;;19.90;99.90;;;;;;5068527;28;20599;-74